Archiv-/Tagesdaten

--Timestamp---	Temp	Chill	HIndex	Humid	Dewpt	 Wind 	HiWind	WindDir	Rain 	Barom	Solar	 ET  	 UV 
--------------	----	-----	------	-----	-----	------	------	-------	-----	-----	-----	-----	----
20100108 00:00	-4.9	-4.9	-4.9	90	-6.3	3	5	112	0.0	1012.7	0	0.000	0.0
20100108 00:05	-4.9	-4.9	-4.9	90	-6.3	3	5	112	0.0	1012.7	0	0.000	0.0
20100108 00:10	-4.9	-4.9	-4.9	89	-6.4	3	6	112	0.0	1012.6	0	0.000	0.0
20100108 00:15	-4.9	-4.9	-4.9	90	-6.3	3	6	112	0.0	1012.6	0	0.000	0.0
20100108 00:20	-4.9	-4.9	-4.9	90	-6.3	5	10	112	0.0	1012.4	0	0.000	0.0
20100108 00:25	-4.9	-4.9	-4.9	90	-6.3	5	10	45	0.0	1012.4	0	0.000	0.0
20100108 00:30	-4.8	-4.8	-4.8	90	-6.2	5	8	68	0.0	1012.5	0	0.000	0.0
20100108 00:35	-4.8	-4.8	-4.8	90	-6.2	5	10	68	0.0	1012.4	0	0.000	0.0
20100108 00:40	-4.8	-4.8	-4.8	90	-6.2	3	8	68	0.0	1012.4	0	0.000	0.0
20100108 00:45	-4.8	-4.8	-4.8	90	-6.2	5	8	68	0.0	1012.5	0	0.000	0.0
20100108 00:50	-4.8	-7.8	-4.8	90	-6.2	6	10	45	0.0	1012.5	0	0.000	0.0
20100108 00:55	-4.8	-7.8	-4.8	90	-6.2	6	10	45	0.0	1012.5	0	0.000	0.0
20100108 01:00	-4.8	-4.8	-4.8	90	-6.2	3	6	45	0.0	1012.5	0	0.000	0.0
20100108 01:05	-4.8	-4.8	-4.8	90	-6.2	5	8	45	0.0	1012.7	0	0.000	0.0
20100108 01:10	-4.7	-4.7	-4.7	90	-6.1	5	8	45	0.0	1012.4	0	0.000	0.0
20100108 01:15	-4.7	-4.7	-4.7	90	-6.1	5	10	68	0.0	1012.3	0	0.000	0.0
20100108 01:20	-4.7	-4.7	-4.7	90	-6.1	5	10	68	0.0	1012.2	0	0.000	0.0
20100108 01:25	-4.7	-7.6	-4.7	90	-6.1	6	11	45	0.0	1012.1	0	0.000	0.0
20100108 01:30	-4.7	-7.6	-4.7	90	-6.1	6	14	45	0.0	1012.0	0	0.000	0.0
20100108 01:35	-4.7	-7.6	-4.7	90	-6.1	6	11	45	0.0	1011.8	0	0.000	0.0
20100108 01:40	-4.7	-7.6	-4.7	90	-6.1	6	11	45	0.0	1011.9	0	0.000	0.0
20100108 01:45	-4.7	-8.8	-4.7	90	-6.1	10	16	45	0.0	1011.9	0	0.000	0.0
20100108 01:50	-4.7	-7.6	-4.7	90	-6.1	6	11	45	0.0	1012.0	0	0.000	0.0
20100108 01:55	-4.7	-4.7	-4.7	90	-6.1	5	10	45	0.0	1012.0	0	0.000	0.0
20100108 02:00	-4.7	-7.6	-4.7	90	-6.1	6	10	68	0.0	1012.0	0	0.000	0.0
20100108 02:05	-4.7	-4.7	-4.7	90	-6.1	5	10	45	0.0	1012.2	0	0.000	0.0
20100108 02:10	-4.7	-4.7	-4.7	90	-6.1	5	8	45	0.0	1012.2	0	0.000	0.0
20100108 02:15	-4.7	-7.6	-4.7	90	-6.1	6	11	45	0.0	1012.0	0	0.000	0.0
20100108 02:20	-4.7	-4.7	-4.7	90	-6.1	5	8	45	0.0	1012.0	0	0.000	0.0
20100108 02:25	-4.7	-4.7	-4.7	90	-6.1	5	8	45	0.0	1012.3	0	0.000	0.0
20100108 02:30	-4.7	-4.7	-4.7	90	-6.1	2	5	68	0.0	1012.4	0	0.000	0.0
20100108 02:35	-4.6	-4.6	-4.6	90	-6.0	3	6	68	0.0	1012.2	0	0.000	0.0
20100108 02:40	-4.6	-4.6	-4.6	90	-6.0	5	8	68	0.0	1012.0	0	0.000	0.0
20100108 02:45	-4.6	-4.6	-4.6	90	-6.0	5	8	45	0.0	1012.0	0	0.000	0.0
20100108 02:50	-4.6	-4.6	-4.6	90	-6.0	5	8	45	0.0	1012.0	0	0.000	0.0
20100108 02:55	-4.6	-7.5	-4.6	90	-6.0	6	11	68	0.0	1011.9	0	0.000	0.0
20100108 03:00	-4.6	-7.4	-4.6	90	-5.9	6	10	68	0.0	1011.9	0	0.000	0.0
20100108 03:05	-4.6	-7.4	-4.6	90	-5.9	6	10	45	0.0	1011.9	0	0.000	0.0
20100108 03:10	-4.5	-7.4	-4.5	90	-5.9	6	11	45	0.0	1011.8	0	0.000	0.0
20100108 03:15	-4.5	-7.4	-4.5	90	-5.9	6	16	45	0.0	1011.7	0	0.000	0.0
20100108 03:20	-4.4	-4.4	-4.4	90	-5.8	5	11	45	0.0	1011.6	0	0.000	0.0
20100108 03:25	-4.4	-4.4	-4.4	90	-5.8	3	8	90	0.0	1011.8	0	0.000	0.0
20100108 03:30	-4.4	-4.4	-4.4	90	-5.8	3	8	90	0.0	1011.8	0	0.000	0.0
20100108 03:35	-4.3	-4.3	-4.3	90	-5.7	5	8	68	0.0	1011.7	0	0.000	0.0
20100108 03:40	-4.3	-4.3	-4.3	90	-5.7	5	8	68	0.0	1011.8	0	0.000	0.0
20100108 03:45	-4.3	-4.3	-4.3	90	-5.7	3	6	68	0.0	1011.8	0	0.000	0.0
20100108 03:50	-4.2	-4.2	-4.2	90	-5.6	5	8	68	0.0	1011.8	0	0.000	0.0
20100108 03:55	-4.2	-4.2	-4.2	90	-5.6	5	8	68	0.0	1011.7	0	0.000	0.0
20100108 04:00	-4.2	-4.2	-4.2	90	-5.6	5	8	68	0.0	1011.7	0	0.000	0.0
20100108 04:05	-4.2	-4.2	-4.2	90	-5.6	3	6	68	0.2	1011.8	0	0.000	0.0
20100108 04:10	-4.2	-4.2	-4.2	90	-5.6	3	6	68	0.0	1011.8	0	0.000	0.0
20100108 04:15	-4.2	-4.2	-4.2	90	-5.6	3	6	90	0.0	1011.8	0	0.000	0.0
20100108 04:20	-4.2	-4.2	-4.2	90	-5.6	3	6	68	0.0	1011.8	0	0.000	0.0
20100108 04:25	-4.2	-4.2	-4.2	90	-5.6	3	6	68	0.2	1011.8	0	0.000	0.0
20100108 04:30	-4.2	-4.2	-4.2	90	-5.6	3	6	68	0.0	1011.8	0	0.000	0.0
20100108 04:35	-4.2	-4.2	-4.2	90	-5.6	5	8	68	0.0	1011.8	0	0.000	0.0
20100108 04:40	-4.2	-7.0	-4.2	90	-5.6	6	10	68	0.0	1011.8	0	0.000	0.0
20100108 04:45	-4.2	-4.2	-4.2	90	-5.6	5	8	68	0.0	1011.6	0	0.000	0.0
20100108 04:50	-4.2	-4.2	-4.2	90	-5.6	3	5	68	0.0	1011.6	0	0.000	0.0
20100108 04:55	-4.2	-4.2	-4.2	90	-5.6	0	3	68	0.0	1011.7	0	0.000	0.0
20100108 05:00	-4.2	-4.2	-4.2	91	-5.4	0	2	68	0.2	1011.6	0	0.000	0.0
20100108 05:05	-4.1	-4.1	-4.1	91	-5.4	2	3	68	0.0	1011.7	0	0.000	0.0
20100108 05:10	-4.1	-4.1	-4.1	91	-5.4	2	3	68	0.0	1011.8	0	0.000	0.0
20100108 05:15	-4.2	-4.2	-4.2	91	-5.4	2	5	68	0.0	1011.8	0	0.000	0.0
20100108 05:20	-4.2	-4.2	-4.2	90	-5.6	2	5	90	0.0	1011.7	0	0.000	0.0
20100108 05:25	-4.2	-4.2	-4.2	90	-5.6	2	5	90	0.2	1011.8	0	0.000	0.0
20100108 05:30	-4.2	-4.2	-4.2	90	-5.6	2	3	90	0.0	1011.8	0	0.000	0.0
20100108 05:35	-4.2	-4.2	-4.2	90	-5.6	2	3	90	0.0	1011.8	0	0.000	0.0
20100108 05:40	-4.2	-4.2	-4.2	90	-5.6	2	3	90	0.0	1011.8	0	0.000	0.0
20100108 05:45	-4.3	-4.3	-4.3	90	-5.7	3	5	90	0.0	1011.8	0	0.000	0.0
20100108 05:50	-4.3	-4.3	-4.3	90	-5.7	3	6	68	0.0	1011.7	0	0.000	0.0
20100108 05:55	-4.3	-4.3	-4.3	90	-5.7	5	8	45	0.0	1011.6	0	0.000	0.0
20100108 06:00	-4.3	-7.2	-4.3	90	-5.7	6	10	22	0.0	1011.5	0	0.000	0.0
20100108 06:05	-4.3	-4.3	-4.3	90	-5.7	5	8	22	0.0	1011.6	0	0.000	0.0
20100108 06:10	-4.4	-4.4	-4.4	90	-5.8	5	8	22	0.0	1011.6	0	0.000	0.0
20100108 06:15	-4.4	-4.4	-4.4	90	-5.8	3	6	22	0.0	1011.6	0	0.000	0.0
20100108 06:20	-4.4	-4.4	-4.4	90	-5.8	2	5	22	0.0	1011.6	0	0.000	0.0
20100108 06:25	-4.4	-4.4	-4.4	90	-5.8	3	5	22	0.0	1011.6	0	0.000	0.0
20100108 06:30	-4.4	-4.4	-4.4	90	-5.8	3	6	22	0.0	1011.4	0	0.000	0.0
20100108 06:35	-4.4	-4.4	-4.4	90	-5.8	3	6	22	0.0	1011.3	0	0.000	0.0
20100108 06:40	-4.4	-4.4	-4.4	90	-5.8	5	6	22	0.0	1011.3	0	0.000	0.0
20100108 06:45	-4.4	-4.4	-4.4	90	-5.8	3	6	22	0.0	1011.4	0	0.000	0.0
20100108 06:50	-4.4	-4.4	-4.4	90	-5.8	2	5	22	0.0	1011.4	0	0.000	0.0
20100108 06:55	-4.5	-4.5	-4.5	91	-5.7	3	5	22	0.0	1011.4	0	0.000	0.0
20100108 07:00	-4.5	-4.5	-4.5	91	-5.7	5	6	22	0.0	1011.4	0	0.000	0.0
20100108 07:05	-4.5	-4.5	-4.5	90	-5.9	3	5	22	0.0	1011.4	0	0.000	0.0
20100108 07:10	-4.6	-4.6	-4.6	90	-5.9	3	6	22	0.0	1011.5	0	0.000	0.0
20100108 07:15	-4.6	-4.6	-4.6	90	-5.9	2	6	22	0.0	1011.5	0	0.000	0.0
20100108 07:20	-4.6	-4.6	-4.6	91	-5.8	2	5	22	0.0	1011.5	0	0.000	0.0
20100108 07:25	-4.6	-4.6	-4.6	91	-5.8	5	8	22	0.0	1011.4	0	0.000	0.0
20100108 07:30	-4.6	-4.6	-4.6	91	-5.9	3	6	22	0.0	1011.4	0	0.000	0.0
20100108 07:35	-4.6	-4.6	-4.6	91	-5.9	3	6	22	0.0	1011.2	0	0.000	0.0
20100108 07:40	-4.6	-4.6	-4.6	91	-5.9	5	8	22	0.0	1011.3	0	0.000	0.0
20100108 07:45	-4.6	-4.6	-4.6	91	-5.9	3	6	22	0.0	1011.3	0	0.000	0.0
20100108 07:50	-4.6	-4.6	-4.6	91	-5.9	5	6	22	0.0	1011.3	0	0.000	0.0
20100108 07:55	-4.6	-4.6	-4.6	91	-5.9	5	8	45	0.0	1011.3	0	0.000	0.0
20100108 08:00	-4.6	-4.6	-4.6	91	-5.9	3	6	45	0.0	1011.3	0	0.000	0.0
20100108 08:05	-4.6	-4.6	-4.6	91	-5.9	5	10	45	0.0	1011.4	0	0.000	0.0
20100108 08:10	-4.6	-4.6	-4.6	90	-6.0	5	8	45	0.0	1011.4	0	0.000	0.0
20100108 08:15	-4.6	-4.6	-4.6	90	-6.0	3	6	45	0.0	1011.4	0	0.000	0.0
20100108 08:20	-4.6	-4.6	-4.6	90	-5.9	3	6	45	0.0	1011.4	0	0.000	0.0
20100108 08:25	-4.6	-4.6	-4.6	90	-5.9	5	8	45	0.0	1011.3	6	0.000	0.0
20100108 08:30	-4.6	-4.6	-4.6	90	-5.9	5	10	45	0.0	1011.4	9	0.000	0.0
20100108 08:35	-4.6	-7.4	-4.6	90	-5.9	6	13	45	0.0	1011.3	11	0.000	0.0
20100108 08:40	-4.6	-7.4	-4.6	90	-5.9	6	13	45	0.0	1011.3	12	0.000	0.0
20100108 08:45	-4.5	-7.4	-4.5	90	-5.9	6	11	45	0.0	1011.2	13	0.000	0.0
20100108 08:50	-4.5	-7.4	-4.5	90	-5.9	6	11	45	0.0	1011.1	14	0.000	0.0
20100108 08:55	-4.5	-7.4	-4.5	90	-5.9	6	11	68	0.0	1011.1	15	0.000	0.0
20100108 09:00	-4.5	-4.5	-4.5	90	-5.9	5	8	45	0.0	1010.9	19	0.000	0.0
20100108 09:05	-4.4	-7.3	-4.4	90	-5.8	6	11	22	0.0	1010.9	19	0.000	0.0
20100108 09:10	-4.4	-4.4	-4.4	90	-5.8	5	11	45	0.0	1010.9	22	0.000	0.0
20100108 09:15	-4.4	-4.4	-4.4	90	-5.8	5	6	45	0.0	1011.0	25	0.000	0.0
20100108 09:20	-4.3	-4.3	-4.3	90	-5.7	5	8	45	0.0	1011.0	23	0.000	0.0
20100108 09:25	-4.3	-4.3	-4.3	90	-5.7	5	8	22	0.0	1011.0	20	0.000	0.0
20100108 09:30	-4.3	-4.3	-4.3	90	-5.7	5	11	22	0.0	1010.9	19	0.000	0.0
20100108 09:35	-4.3	-4.3	-4.3	90	-5.7	5	8	45	0.0	1010.9	23	0.000	0.0
20100108 09:40	-4.3	-4.3	-4.3	90	-5.7	5	10	45	0.0	1010.9	29	0.000	0.0
20100108 09:45	-4.3	-4.3	-4.3	90	-5.7	5	10	68	0.0	1010.9	33	0.000	0.0
20100108 09:50	-4.3	-7.8	-4.3	90	-5.7	8	11	45	0.0	1010.8	41	0.000	0.0
20100108 09:55	-4.2	-7.7	-4.2	90	-5.6	8	14	68	0.0	1010.8	39	0.000	0.0
20100108 10:00	-4.2	-7.7	-4.2	89	-5.8	8	16	45	0.0	1010.7	40	0.000	0.0
20100108 10:05	-4.2	-7.6	-4.2	89	-5.7	8	16	45	0.0	1010.6	41	0.000	0.0
20100108 10:10	-4.2	-7.6	-4.2	89	-5.7	8	13	68	0.0	1010.4	34	0.000	0.0
20100108 10:15	-4.1	-7.6	-4.1	89	-5.6	8	13	68	0.0	1010.4	32	0.000	0.0
20100108 10:20	-4.1	-7.5	-4.1	89	-5.6	8	11	68	0.0	1010.3	34	0.000	0.0
20100108 10:25	-4.1	-7.5	-4.1	89	-5.6	8	14	68	0.0	1010.2	39	0.000	0.0
20100108 10:30	-4.0	-7.4	-4.0	89	-5.5	8	16	68	0.0	1010.2	36	0.000	0.0
20100108 10:35	-4.0	-7.4	-4.0	89	-5.5	8	11	68	0.0	1010.3	34	0.000	0.0
20100108 10:40	-3.9	-7.4	-3.9	89	-5.5	8	13	68	0.0	1010.1	34	0.000	0.0
20100108 10:45	-3.9	-3.9	-3.9	89	-5.4	5	10	68	0.0	1010.1	33	0.000	0.0
20100108 10:50	-3.8	-3.8	-3.8	89	-5.4	5	10	90	0.0	1010.1	38	0.000	0.0
20100108 10:55	-3.8	-6.5	-3.8	89	-5.3	6	11	68	0.0	1010.1	35	0.000	0.0
20100108 11:00	-3.8	-6.5	-3.8	89	-5.3	6	10	68	0.0	1010.0	26	0.025	0.0
20100108 11:05	-3.8	-7.2	-3.8	89	-5.3	8	14	68	0.0	1009.9	28	0.000	0.0
20100108 11:10	-3.8	-3.8	-3.8	89	-5.3	5	11	90	0.0	1009.8	32	0.000	0.0
20100108 11:15	-3.7	-3.7	-3.7	89	-5.3	5	11	68	0.0	1009.7	37	0.000	0.0
20100108 11:20	-3.7	-6.5	-3.7	89	-5.3	6	10	68	0.0	1009.7	39	0.000	0.0
20100108 11:25	-3.7	-3.7	-3.7	89	-5.2	5	10	68	0.0	1009.7	36	0.000	0.0
20100108 11:30	-3.6	-6.4	-3.6	88	-5.3	6	10	68	0.0	1009.6	39	0.000	0.0
20100108 11:35	-3.6	-6.9	-3.6	88	-5.3	8	16	68	0.0	1009.6	44	0.000	0.0
20100108 11:40	-3.6	-3.6	-3.6	88	-5.3	3	8	68	0.0	1009.5	47	0.000	0.0
20100108 11:45	-3.5	-6.2	-3.5	88	-5.2	6	11	68	0.0	1009.5	37	0.000	0.0
20100108 11:50	-3.5	-6.2	-3.5	88	-5.2	6	14	68	0.0	1009.3	34	0.000	0.0
20100108 11:55	-3.6	-7.9	-3.6	88	-5.3	11	18	68	0.0	1009.3	31	0.000	0.0
20100108 12:00	-3.6	-6.9	-3.6	88	-5.3	8	14	68	0.0	1009.1	31	0.025	0.0
20100108 12:05	-3.6	-6.3	-3.6	88	-5.3	6	11	68	0.0	1009.1	33	0.000	0.0
20100108 12:10	-3.5	-6.2	-3.5	88	-5.2	6	14	90	0.0	1008.9	30	0.000	0.0
20100108 12:15	-3.6	-7.9	-3.6	88	-5.3	11	21	68	0.0	1008.8	31	0.000	0.0
20100108 12:20	-3.6	-8.0	-3.6	88	-5.3	11	19	68	0.0	1008.7	30	0.000	0.0
20100108 12:25	-3.6	-8.0	-3.6	88	-5.3	11	18	68	0.0	1008.6	28	0.000	0.0
20100108 12:30	-3.6	-7.4	-3.6	88	-5.3	10	18	68	0.0	1008.5	30	0.000	0.0
20100108 12:35	-3.6	-6.3	-3.6	88	-5.3	6	14	68	0.0	1008.5	30	0.000	0.0
20100108 12:40	-3.6	-6.3	-3.6	88	-5.3	6	10	68	0.0	1008.4	32	0.000	0.0
20100108 12:45	-3.6	-8.3	-3.6	88	-5.3	13	19	68	0.0	1008.4	32	0.000	0.0
20100108 12:50	-3.5	-6.8	-3.5	88	-5.2	8	16	68	0.0	1008.3	33	0.000	0.0
20100108 12:55	-3.5	-6.8	-3.5	88	-5.2	8	13	68	0.0	1008.2	34	0.000	0.0
20100108 13:00	-3.5	-6.8	-3.5	88	-5.2	8	13	68	0.0	1008.2	34	0.025	0.0
20100108 13:05	-3.5	-6.2	-3.5	88	-5.2	6	11	68	0.0	1008.0	34	0.000	0.0
20100108 13:10	-3.4	-6.8	-3.4	88	-5.1	8	13	68	0.0	1008.0	33	0.000	0.0
20100108 13:15	-3.4	-6.8	-3.4	88	-5.1	8	11	68	0.0	1007.9	33	0.000	0.0
20100108 13:20	-3.4	-7.3	-3.4	87	-5.3	10	16	68	0.0	1007.9	32	0.000	0.0
20100108 13:25	-3.4	-7.3	-3.4	87	-5.3	10	16	68	0.0	1007.9	32	0.000	0.0
20100108 13:30	-3.4	-6.8	-3.4	87	-5.3	8	11	68	0.0	1007.8	31	0.000	0.0
20100108 13:35	-3.4	-6.7	-3.4	87	-5.2	8	14	68	0.0	1007.8	32	0.000	0.0
20100108 13:40	-3.4	-6.7	-3.4	87	-5.2	8	13	68	0.0	1007.7	31	0.000	0.0
20100108 13:45	-3.4	-6.7	-3.4	87	-5.2	8	14	68	0.0	1007.7	30	0.000	0.0
20100108 13:50	-3.4	-7.2	-3.4	87	-5.2	10	16	68	0.0	1007.7	28	0.000	0.0
20100108 13:55	-3.4	-6.7	-3.4	87	-5.2	8	11	68	0.0	1007.6	28	0.000	0.0
20100108 14:00	-3.4	-6.1	-3.4	87	-5.2	6	11	45	0.0	1007.5	30	0.025	0.0
20100108 14:05	-3.4	-6.7	-3.4	87	-5.2	8	14	68	0.0	1007.5	29	0.000	0.0
20100108 14:10	-3.3	-6.7	-3.3	87	-5.2	8	14	68	0.0	1007.4	26	0.000	0.0
20100108 14:15	-3.4	-6.7	-3.4	87	-5.2	8	16	68	0.0	1007.3	23	0.000	0.0
20100108 14:20	-3.3	-6.0	-3.3	87	-5.1	6	13	68	0.0	1007.2	22	0.000	0.0
20100108 14:25	-3.3	-6.6	-3.3	87	-5.1	8	13	68	0.0	1007.2	21	0.000	0.0
20100108 14:30	-3.2	-6.5	-3.2	87	-5.1	8	13	68	0.0	1007.2	19	0.000	0.0
20100108 14:35	-3.2	-7.0	-3.2	87	-5.1	10	16	68	0.0	1007.1	21	0.000	0.0
20100108 14:40	-3.2	-6.5	-3.2	87	-5.1	8	11	68	0.0	1007.0	21	0.000	0.0
20100108 14:45	-3.2	-7.0	-3.2	87	-5.1	10	16	68	0.0	1007.0	21	0.000	0.0
20100108 14:50	-3.2	-7.0	-3.2	87	-5.1	10	16	68	0.0	1007.0	19	0.000	0.0
20100108 14:55	-3.2	-7.0	-3.2	87	-5.1	10	16	68	0.0	1007.0	19	0.000	0.0
20100108 15:00	-3.2	-7.0	-3.2	87	-5.1	10	16	68	0.0	1007.0	18	0.025	0.0
20100108 15:05	-3.2	-6.5	-3.2	87	-5.1	8	14	68	0.0	1007.0	18	0.000	0.0
20100108 15:10	-3.3	-6.0	-3.3	87	-5.1	6	11	68	0.0	1007.0	17	0.000	0.0
20100108 15:15	-3.2	-6.5	-3.2	87	-5.1	8	16	68	0.0	1007.0	14	0.000	0.0
20100108 15:20	-3.2	-6.5	-3.2	87	-5.1	8	14	68	0.0	1007.0	12	0.000	0.0
20100108 15:25	-3.3	-8.0	-3.3	86	-5.3	13	19	68	0.0	1006.9	11	0.000	0.0
20100108 15:30	-3.3	-8.3	-3.3	87	-5.1	14	19	68	0.0	1006.8	11	0.000	0.0
20100108 15:35	-3.3	-7.2	-3.3	87	-5.2	10	18	68	0.0	1006.8	10	0.000	0.0
20100108 15:40	-3.3	-7.6	-3.3	87	-5.2	11	19	68	0.0	1006.8	9	0.000	0.0
20100108 15:45	-3.3	-7.2	-3.3	87	-5.2	10	16	68	0.0	1006.7	7	0.000	0.0
20100108 15:50	-3.4	-6.7	-3.4	88	-5.1	8	11	68	0.0	1006.8	7	0.000	0.0
20100108 15:55	-3.4	-7.2	-3.4	88	-5.1	10	16	68	0.0	1006.7	5	0.000	0.0
20100108 16:00	-3.4	-7.3	-3.4	89	-5.0	10	14	68	0.0	1006.7	4	0.000	0.0
20100108 16:05	-3.4	-6.8	-3.4	89	-5.0	8	14	68	0.0	1006.7	0	0.000	0.0
20100108 16:10	-3.4	-7.3	-3.4	89	-5.0	10	16	68	0.0	1006.6	0	0.000	0.0
20100108 16:15	-3.4	-6.8	-3.4	89	-5.0	8	16	68	0.0	1006.6	0	0.000	0.0
20100108 16:20	-3.4	-6.2	-3.4	90	-4.8	6	11	68	0.0	1006.7	0	0.000	0.0
20100108 16:25	-3.5	-6.2	-3.5	90	-4.9	6	13	68	0.0	1006.6	0	0.000	0.0
20100108 16:30	-3.5	-6.8	-3.5	90	-4.9	8	14	68	0.0	1006.7	0	0.000	0.0
20100108 16:35	-3.5	-6.2	-3.5	90	-4.9	6	10	68	0.0	1006.7	0	0.000	0.0
20100108 16:40	-3.5	-6.2	-3.5	91	-4.8	6	11	68	0.0	587.6	0	0.000	0.0
20100108 16:45	-3.5	-6.2	-3.5	91	-4.8	6	10	68	0.0	1006.5	0	0.000	0.0
20100108 16:50	-3.4	-6.2	-3.4	91	-4.7	6	11	68	0.0	1006.5	0	0.000	0.0
20100108 16:55	-3.4	-6.2	-3.4	91	-4.7	6	11	68	0.0	1006.4	0	0.000	0.0
20100108 17:00	-3.5	-6.8	-3.5	91	-4.8	8	14	45	0.0	1006.3	0	0.000	0.0
20100108 17:05	-3.5	-6.8	-3.5	91	-4.8	8	16	45	0.0	1006.3	0	0.000	0.0
20100108 17:10	-3.6	-7.4	-3.6	91	-4.8	10	14	45	0.0	1006.3	0	0.000	0.0
20100108 17:15	-3.6	-6.9	-3.6	91	-4.8	8	14	45	0.0	1006.3	0	0.000	0.0
20100108 17:20	-3.6	-6.3	-3.6	91	-4.8	6	16	45	0.0	1006.1	0	0.000	0.0
20100108 17:25	-3.6	-6.4	-3.6	91	-4.9	6	14	45	0.0	1006.1	0	0.000	0.0
20100108 17:30	-3.6	-6.4	-3.6	91	-4.9	6	11	22	0.0	1005.9	0	0.000	0.0
20100108 17:35	-3.7	-7.0	-3.7	92	-4.8	8	16	45	0.0	1005.9	0	0.000	0.0
20100108 17:40	-3.7	-6.4	-3.7	92	-4.8	6	11	45	0.0	1006.0	0	0.000	0.0
20100108 17:45	-3.7	-7.0	-3.7	92	-4.8	8	16	45	0.0	1006.0	0	0.000	0.0
20100108 17:50	-3.7	-3.7	-3.7	92	-4.8	5	10	45	0.0	1006.0	0	0.000	0.0
20100108 17:55	-3.7	-6.5	-3.7	92	-4.8	6	11	45	0.0	1006.0	0	0.000	0.0
20100108 18:00	-3.7	-7.1	-3.7	92	-4.8	8	14	22	0.0	1006.0	0	0.000	0.0
20100108 18:05	-3.8	-7.7	-3.8	92	-4.9	10	18	22	0.0	1006.0	0	0.000	0.0
20100108 18:10	-3.8	-7.2	-3.8	92	-4.9	8	14	22	0.0	1006.0	0	0.000	0.0
20100108 18:15	-3.8	-7.2	-3.8	92	-4.9	8	16	22	0.0	1006.0	0	0.000	0.0
20100108 18:20	-3.8	-7.2	-3.8	92	-4.9	8	14	45	0.0	1006.0	0	0.000	0.0
20100108 18:25	-3.8	-7.2	-3.8	92	-4.9	8	14	22	0.0	1006.0	0	0.000	0.0
20100108 18:30	-3.8	-7.2	-3.8	92	-4.9	8	11	45	0.0	1006.0	0	0.000	0.0
20100108 18:35	-3.8	-7.2	-3.8	92	-4.9	8	11	22	0.0	1006.0	0	0.000	0.0
20100108 18:40	-3.8	-7.2	-3.8	92	-4.9	8	14	45	0.0	1006.0	0	0.000	0.0
20100108 18:45	-3.8	-7.2	-3.8	92	-4.9	8	13	45	0.0	978.8	0	0.000	0.0
20100108 18:50	-3.8	-7.2	-3.8	92	-4.9	8	14	22	0.0	978.8	0	0.000	0.0
20100108 18:55	-3.8	-6.6	-3.8	92	-4.9	6	11	22	0.0	842.3	0	0.000	0.0
20100108 19:00	-3.8	-6.6	-3.8	92	-4.9	6	13	22	0.0	924.2	0	0.000	0.0
20100108 19:05	-3.8	-6.6	-3.8	92	-4.9	6	14	45	0.0	924.2	0	0.000	0.0
20100108 19:10	-3.8	-6.5	-3.8	92	-4.9	6	11	45	0.0	924.2	0	0.000	0.0
20100108 19:15	-3.8	-6.5	-3.8	92	-4.9	6	10	45	0.0	924.2	0	0.000	0.0
20100108 19:20	-3.8	-7.2	-3.8	92	-4.9	8	16	45	0.0	924.2	0	0.000	0.0
20100108 19:25	-3.8	-7.2	-3.8	92	-4.9	8	11	45	0.0	912.5	0	0.000	0.0
20100108 19:30	-3.8	-7.2	-3.8	92	-4.9	8	11	45	0.0	912.5	0	0.000	0.0
20100108 19:35	-3.9	-7.8	-3.9	92	-5.0	10	18	22	0.0	959.3	0	0.000	0.0
20100108 19:40	-3.9	-7.4	-3.9	92	-5.0	8	14	45	0.0	959.3	0	0.000	0.0
20100108 19:45	-3.9	-6.7	-3.9	92	-5.0	6	11	22	0.0	959.3	0	0.000	0.0
20100108 19:50	-3.9	-7.4	-3.9	92	-5.0	8	14	22	0.0	1005.8	0	0.000	0.0
20100108 19:55	-4.0	-8.0	-4.0	92	-5.1	10	16	45	0.0	1005.8	0	0.000	0.0
20100108 20:00	-4.0	-7.4	-4.0	92	-5.1	8	11	45	0.0	1005.8	0	0.000	0.0
20100108 20:05	-4.0	-7.4	-4.0	92	-5.1	8	18	45	0.0	1005.8	0	0.000	0.0
20100108 20:10	-4.0	-7.4	-4.0	92	-5.1	8	14	45	0.0	1005.8	0	0.000	0.0
20100108 20:15	-4.1	-8.0	-4.1	92	-5.2	10	14	45	0.0	1005.8	0	0.000	0.0
20100108 20:20	-4.1	-7.5	-4.1	92	-5.2	8	13	45	0.0	1005.8	0	0.000	0.0
20100108 20:25	-4.1	-7.5	-4.1	92	-5.2	8	14	22	0.0	1005.8	0	0.000	0.0
20100108 20:30	-4.1	-6.9	-4.1	92	-5.2	6	10	45	0.0	896.6	0	0.000	0.0
20100108 20:35	-4.2	-8.2	-4.2	92	-5.3	10	14	22	0.0	896.6	0	0.000	0.0
20100108 20:40	-4.2	-7.6	-4.2	92	-5.3	8	16	45	0.0	869.3	0	0.000	0.0
20100108 20:45	-4.2	-7.6	-4.2	92	-5.3	8	14	45	0.0	841.9	0	0.000	0.0
20100108 20:50	-4.2	-7.0	-4.2	92	-5.3	6	11	22	0.0	869.3	0	0.000	0.0
20100108 20:55	-4.2	-7.0	-4.2	92	-5.3	6	11	45	0.0	869.3	0	0.000	0.0
20100108 21:00	-4.2	-7.6	-4.2	92	-5.3	8	16	45	0.0	841.9	0	0.000	0.0
20100108 21:05	-4.2	-7.6	-4.2	92	-5.3	8	16	22	0.0	951.2	0	0.000	0.0
20100108 21:10	-4.2	-8.2	-4.2	92	-5.3	10	16	45	0.0	951.2	0	0.000	0.0
20100108 21:15	-4.2	-8.2	-4.2	92	-5.3	10	16	22	0.0	978.5	0	0.000	0.0
20100108 21:20	-4.2	-7.6	-4.2	92	-5.3	8	16	22	0.0	1005.8	0	0.000	0.0
20100108 21:25	-4.2	-8.2	-4.2	92	-5.3	10	14	22	0.0	1005.8	0	0.000	0.0
20100108 21:30	-4.2	-7.6	-4.2	92	-5.3	8	13	22	0.0	1005.8	0	0.000	0.0
20100108 21:35	-4.2	-7.6	-4.2	92	-5.3	8	16	22	0.0	923.9	0	0.000	0.0
20100108 21:40	-4.2	-7.0	-4.2	92	-5.3	6	11	45	0.0	923.9	0	0.000	0.0
20100108 21:45	-4.2	-7.0	-4.2	92	-5.3	6	11	45	0.0	923.9	0	0.000	0.0
20100108 21:50	-4.2	-7.6	-4.2	92	-5.3	8	16	22	0.0	923.9	0	0.000	0.0
20100108 21:55	-4.2	-7.6	-4.2	92	-5.3	8	14	22	0.0	923.9	0	0.000	0.0
20100108 22:00	-4.2	-7.6	-4.2	92	-5.3	8	13	22	0.0	923.9	0	0.000	0.0
20100108 22:05	-4.2	-7.1	-4.2	92	-5.3	6	16	22	0.0	1005.9	0	0.000	0.0
20100108 22:10	-4.2	-7.1	-4.2	92	-5.3	6	11	45	0.0	1005.9	0	0.000	0.0
20100108 22:15	-4.2	-7.7	-4.2	92	-5.3	8	18	45	0.0	1005.9	0	0.000	0.0
20100108 22:20	-4.3	-8.3	-4.3	92	-5.4	10	16	22	0.0	1005.9	0	0.000	0.0
20100108 22:25	-4.3	-7.1	-4.3	92	-5.4	6	8	45	0.0	923.9	0	0.000	0.0
20100108 22:30	-4.2	-4.2	-4.2	92	-5.3	5	10	22	0.0	923.9	0	0.000	0.0
20100108 22:35	-4.2	-4.2	-4.2	92	-5.3	5	8	22	0.0	923.9	0	0.000	0.0
20100108 22:40	-4.2	-4.2	-4.2	92	-5.3	5	10	22	0.0	1005.9	0	0.000	0.0
20100108 22:45	-4.2	-4.2	-4.2	92	-5.3	5	10	22	0.0	1005.9	0	0.000	0.0
20100108 22:50	-4.2	-4.2	-4.2	92	-5.3	5	8	22	0.0	1006.0	0	0.000	0.0
20100108 22:55	-4.2	-4.2	-4.2	92	-5.3	5	10	22	0.0	1006.0	0	0.000	0.0
20100108 23:00	-4.2	-4.2	-4.2	92	-5.3	5	10	22	0.0	777.6	0	0.000	0.0
20100108 23:05	-4.2	-4.2	-4.2	92	-5.3	5	10	22	0.0	777.6	0	0.000	0.0
20100108 23:10	-4.2	-4.2	-4.2	92	-5.3	5	8	22	0.0	777.6	0	0.000	0.0
20100108 23:15	-4.2	-7.1	-4.2	92	-5.3	6	10	22	0.0	777.6	0	0.000	0.0
20100108 23:20	-4.2	-7.7	-4.2	92	-5.3	8	14	22	0.0	777.6	0	0.000	0.0
20100108 23:25	-4.2	-7.1	-4.2	92	-5.3	6	11	22	0.0	1006.1	0	0.000	0.0
20100108 23:30	-4.2	-7.1	-4.2	92	-5.3	6	10	22	0.0	1006.3	0	0.000	0.0
20100108 23:35	-4.2	-7.1	-4.2	92	-5.3	6	10	22	0.0	1006.3	0	0.000	0.0
20100108 23:40	-4.2	-4.2	-4.2	92	-5.3	5	8	22	0.0	1006.3	0	0.000	0.0
20100108 23:45	-4.2	-7.1	-4.2	92	-5.3	6	11	22	0.0	1006.3	0	0.000	0.0
20100108 23:50	-4.3	-4.3	-4.3	92	-5.4	5	10	22	0.0	1006.4	0	0.000	0.0
20100108 23:55	-4.2	-4.2	-4.2	92	-5.3	5	10	22	0.0	1006.4	0	0.000	0.0



Please note the license to use and transfer of this data:
http://creativecommons.org/licenses/by-nc-sa/3.0/deed.en

Bitte beachten sie die Lizenz zur Verwertung und Weitergabe der Daten:
http://creativecommons.org/licenses/by-nc-sa/3.0/deed.de

zurück zur Übersicht der Archivdaten (Monats und Tagesdaten)

Cookies helfen bei der Bereitstellung von Inhalten. Durch die Nutzung dieser Seiten erklärst du dich damit einverstanden, dass Cookies auf deinem Rechner gespeichert werden. Weitere Information